sensor_id;sensor_type;location;lat;lon;timestamp;P1;durP1;ratioP1;P2;durP2;ratioP2
69170;SDS011;56279;47.902;12.308;2023-11-21T00:00:05;6.72;;;1.50;;
69170;SDS011;56279;47.902;12.308;2023-11-21T00:02:16;5.72;;;1.70;;
69170;SDS011;56279;47.902;12.308;2023-11-21T00:04:17;3.15;;;1.70;;
69170;SDS011;56279;47.902;12.308;2023-11-21T00:06:18;7.20;;;1.40;;
69170;SDS011;56279;47.902;12.308;2023-11-21T00:08:21;13.07;;;1.70;;
69170;SDS011;56279;47.902;12.308;2023-11-21T00:10:22;4.88;;;1.63;;
69170;SDS011;56279;47.902;12.308;2023-11-21T00:12:23;4.05;;;1.50;;
69170;SDS011;56279;47.902;12.308;2023-11-21T00:14:25;6.00;;;1.27;;
69170;SDS011;56279;47.902;12.308;2023-11-21T00:16:26;5.23;;;1.30;;
69170;SDS011;56279;47.902;12.308;2023-11-21T00:18:28;5.00;;;1.42;;
69170;SDS011;56279;47.902;12.308;2023-11-21T00:20:29;6.15;;;1.45;;
69170;SDS011;56279;47.902;12.308;2023-11-21T00:22:30;6.88;;;2.00;;
69170;SDS011;56279;47.902;12.308;2023-11-21T00:24:33;6.07;;;1.60;;
69170;SDS011;56279;47.902;12.308;2023-11-21T00:26:35;3.23;;;1.43;;
69170;SDS011;56279;47.902;12.308;2023-11-21T00:28:40;6.88;;;1.70;;
69170;SDS011;56279;47.902;12.308;2023-11-21T00:30:41;2.50;;;1.23;;
69170;SDS011;56279;47.902;12.308;2023-11-21T00:32:42;5.03;;;1.17;;
69170;SDS011;56279;47.902;12.308;2023-11-21T00:34:44;4.38;;;1.55;;
69170;SDS011;56279;47.902;12.308;2023-11-21T00:36:45;6.73;;;1.40;;
69170;SDS011;56279;47.902;12.308;2023-11-21T00:38:46;5.72;;;1.20;;
69170;SDS011;56279;47.902;12.308;2023-11-21T00:40:49;4.65;;;1.50;;
69170;SDS011;56279;47.902;12.308;2023-11-21T00:42:50;4.18;;;1.33;;
69170;SDS011;56279;47.902;12.308;2023-11-21T00:44:51;5.38;;;1.35;;
69170;SDS011;56279;47.902;12.308;2023-11-21T00:46:53;6.97;;;1.30;;
69170;SDS011;56279;47.902;12.308;2023-11-21T00:48:55;6.20;;;1.38;;
69170;SDS011;56279;47.902;12.308;2023-11-21T00:50:57;4.90;;;1.40;;
69170;SDS011;56279;47.902;12.308;2023-11-21T00:52:58;5.38;;;1.10;;
69170;SDS011;56279;47.902;12.308;2023-11-21T00:54:59;3.50;;;1.30;;
69170;SDS011;56279;47.902;12.308;2023-11-21T00:57:01;4.87;;;1.60;;
69170;SDS011;56279;47.902;12.308;2023-11-21T00:59:02;2.80;;;1.25;;
69170;SDS011;56279;47.902;12.308;2023-11-21T01:01:05;7.10;;;1.65;;
69170;SDS011;56279;47.902;12.308;2023-11-21T01:03:07;5.50;;;1.60;;
69170;SDS011;56279;47.902;12.308;2023-11-21T01:05:10;3.50;;;1.83;;
69170;SDS011;56279;47.902;12.308;2023-11-21T01:07:11;2.77;;;1.10;;
69170;SDS011;56279;47.902;12.308;2023-11-21T01:09:12;7.80;;;1.33;;
69170;SDS011;56279;47.902;12.308;2023-11-21T01:11:14;4.65;;;1.65;;
69170;SDS011;56279;47.902;12.308;2023-11-21T01:13:15;5.50;;;1.35;;
69170;SDS011;56279;47.902;12.308;2023-11-21T01:15:18;3.22;;;1.20;;
69170;SDS011;56279;47.902;12.308;2023-11-21T01:17:19;4.33;;;1.60;;
69170;SDS011;56279;47.902;12.308;2023-11-21T01:19:20;6.28;;;1.42;;
69170;SDS011;56279;47.902;12.308;2023-11-21T01:21:21;3.63;;;1.40;;
69170;SDS011;56279;47.902;12.308;2023-11-21T01:23:23;5.82;;;1.83;;
69170;SDS011;56279;47.902;12.308;2023-11-21T01:25:26;5.32;;;1.60;;
69170;SDS011;56279;47.902;12.308;2023-11-21T01:27:27;8.60;;;1.43;;
69170;SDS011;56279;47.902;12.308;2023-11-21T01:29:28;4.90;;;1.35;;
69170;SDS011;56279;47.902;12.308;2023-11-21T01:31:30;7.25;;;1.60;;
69170;SDS011;56279;47.902;12.308;2023-11-21T01:33:32;5.78;;;1.30;;
69170;SDS011;56279;47.902;12.308;2023-11-21T01:35:34;7.55;;;1.80;;
69170;SDS011;56279;47.902;12.308;2023-11-21T01:37:36;4.53;;;1.53;;
69170;SDS011;56279;47.902;12.308;2023-11-21T01:39:38;3.78;;;1.65;;
69170;SDS011;56279;47.902;12.308;2023-11-21T01:41:40;3.88;;;1.50;;
69170;SDS011;56279;47.902;12.308;2023-11-21T01:43:45;2.80;;;1.75;;
69170;SDS011;56279;47.902;12.308;2023-11-21T01:45:46;6.68;;;1.70;;
69170;SDS011;56279;47.902;12.308;2023-11-21T01:47:47;4.93;;;1.30;;
69170;SDS011;56279;47.902;12.308;2023-11-21T01:49:49;5.07;;;1.30;;
69170;SDS011;56279;47.902;12.308;2023-11-21T01:51:50;5.90;;;1.55;;
69170;SDS011;56279;47.902;12.308;2023-11-21T01:53:52;5.88;;;1.50;;
69170;SDS011;56279;47.902;12.308;2023-11-21T01:55:54;6.60;;;1.60;;
69170;SDS011;56279;47.902;12.308;2023-11-21T01:57:57;3.43;;;1.60;;
69170;SDS011;56279;47.902;12.308;2023-11-21T01:59:59;6.50;;;1.80;;
69170;SDS011;56279;47.902;12.308;2023-11-21T02:02:16;5.90;;;1.60;;
69170;SDS011;56279;47.902;12.308;2023-11-21T02:04:17;4.65;;;2.03;;
69170;SDS011;56279;47.902;12.308;2023-11-21T02:06:19;5.82;;;1.65;;
69170;SDS011;56279;47.902;12.308;2023-11-21T02:08:20;5.30;;;1.77;;
69170;SDS011;56279;47.902;12.308;2023-11-21T02:10:23;8.90;;;1.92;;
69170;SDS011;56279;47.902;12.308;2023-11-21T02:12:25;4.35;;;1.60;;
69170;SDS011;56279;47.902;12.308;2023-11-21T02:14:27;3.70;;;1.60;;
69170;SDS011;56279;47.902;12.308;2023-11-21T02:16:30;5.65;;;1.80;;
69170;SDS011;56279;47.902;12.308;2023-11-21T02:18:34;6.77;;;1.70;;
69170;SDS011;56279;47.902;12.308;2023-11-21T02:20:37;3.10;;;1.50;;
69170;SDS011;56279;47.902;12.308;2023-11-21T02:22:40;6.65;;;1.75;;
69170;SDS011;56279;47.902;12.308;2023-11-21T02:24:42;5.05;;;2.15;;
69170;SDS011;56279;47.902;12.308;2023-11-21T02:26:44;7.22;;;2.17;;
69170;SDS011;56279;47.902;12.308;2023-11-21T02:28:46;4.77;;;1.90;;
69170;SDS011;56279;47.902;12.308;2023-11-21T02:30:49;3.90;;;1.70;;
69170;SDS011;56279;47.902;12.308;2023-11-21T02:32:56;4.10;;;1.55;;
69170;SDS011;56279;47.902;12.308;2023-11-21T02:34:57;2.25;;;1.40;;
69170;SDS011;56279;47.902;12.308;2023-11-21T02:37:02;4.78;;;1.77;;
69170;SDS011;56279;47.902;12.308;2023-11-21T02:39:03;5.67;;;1.93;;
69170;SDS011;56279;47.902;12.308;2023-11-21T02:41:05;6.35;;;1.80;;
69170;SDS011;56279;47.902;12.308;2023-11-21T02:43:07;5.50;;;1.60;;
69170;SDS011;56279;47.902;12.308;2023-11-21T02:45:08;5.05;;;1.85;;
69170;SDS011;56279;47.902;12.308;2023-11-21T02:47:11;6.40;;;1.83;;
69170;SDS011;56279;47.902;12.308;2023-11-21T02:49:12;4.10;;;1.20;;
69170;SDS011;56279;47.902;12.308;2023-11-21T02:51:13;7.90;;;1.50;;
69170;SDS011;56279;47.902;12.308;2023-11-21T02:53:16;5.68;;;1.58;;
69170;SDS011;56279;47.902;12.308;2023-11-21T02:55:17;5.25;;;1.63;;
69170;SDS011;56279;47.902;12.308;2023-11-21T02:57:19;3.55;;;1.23;;
69170;SDS011;56279;47.902;12.308;2023-11-21T02:59:20;4.13;;;1.33;;
69170;SDS011;56279;47.902;12.308;2023-11-21T03:01:21;4.60;;;1.80;;
69170;SDS011;56279;47.902;12.308;2023-11-21T03:03:24;5.45;;;1.85;;
69170;SDS011;56279;47.902;12.308;2023-11-21T03:05:26;8.65;;;1.67;;
69170;SDS011;56279;47.902;12.308;2023-11-21T03:07:27;4.90;;;1.30;;
69170;SDS011;56279;47.902;12.308;2023-11-21T03:09:29;3.37;;;1.27;;
69170;SDS011;56279;47.902;12.308;2023-11-21T03:11:30;5.38;;;1.98;;
69170;SDS011;56279;47.902;12.308;2023-11-21T03:13:31;6.00;;;2.00;;
69170;SDS011;56279;47.902;12.308;2023-11-21T03:15:32;4.93;;;1.45;;
69170;SDS011;56279;47.902;12.308;2023-11-21T03:17:34;4.40;;;1.60;;
69170;SDS011;56279;47.902;12.308;2023-11-21T03:19:35;8.17;;;1.40;;
69170;SDS011;56279;47.902;12.308;2023-11-21T03:21:37;5.13;;;1.40;;
69170;SDS011;56279;47.902;12.308;2023-11-21T03:23:38;4.88;;;1.48;;
69170;SDS011;56279;47.902;12.308;2023-11-21T03:25:40;4.82;;;1.80;;
69170;SDS011;56279;47.902;12.308;2023-11-21T03:27:42;6.25;;;1.45;;
69170;SDS011;56279;47.902;12.308;2023-11-21T03:29:44;4.20;;;1.43;;
69170;SDS011;56279;47.902;12.308;2023-11-21T03:31:47;6.57;;;1.52;;
69170;SDS011;56279;47.902;12.308;2023-11-21T03:33:49;6.07;;;1.65;;
69170;SDS011;56279;47.902;12.308;2023-11-21T03:35:50;4.95;;;1.90;;
69170;SDS011;56279;47.902;12.308;2023-11-21T03:37:51;5.57;;;1.40;;
69170;SDS011;56279;47.902;12.308;2023-11-21T03:39:53;5.20;;;1.40;;
69170;SDS011;56279;47.902;12.308;2023-11-21T03:41:56;8.32;;;1.63;;
69170;SDS011;56279;47.902;12.308;2023-11-21T03:43:57;6.38;;;1.70;;
69170;SDS011;56279;47.902;12.308;2023-11-21T03:45:59;4.80;;;1.65;;
69170;SDS011;56279;47.902;12.308;2023-11-21T03:48:01;8.15;;;1.75;;
69170;SDS011;56279;47.902;12.308;2023-11-21T03:50:03;4.57;;;1.43;;
69170;SDS011;56279;47.902;12.308;2023-11-21T03:52:05;7.60;;;1.60;;
69170;SDS011;56279;47.902;12.308;2023-11-21T03:54:08;8.75;;;2.00;;
69170;SDS011;56279;47.902;12.308;2023-11-21T03:56:12;5.32;;;1.90;;
69170;SDS011;56279;47.902;12.308;2023-11-21T03:58:15;6.32;;;1.65;;
69170;SDS011;56279;47.902;12.308;2023-11-21T04:00:16;7.70;;;1.90;;
69170;SDS011;56279;47.902;12.308;2023-11-21T04:02:18;6.95;;;1.70;;
69170;SDS011;56279;47.902;12.308;2023-11-21T04:04:19;6.43;;;1.67;;
69170;SDS011;56279;47.902;12.308;2023-11-21T04:06:21;7.60;;;2.15;;
69170;SDS011;56279;47.902;12.308;2023-11-21T04:08:22;7.63;;;1.90;;
69170;SDS011;56279;47.902;12.308;2023-11-21T04:10:23;4.57;;;1.80;;
69170;SDS011;56279;47.902;12.308;2023-11-21T04:12:24;4.28;;;1.70;;
69170;SDS011;56279;47.902;12.308;2023-11-21T04:14:26;5.80;;;2.42;;
69170;SDS011;56279;47.902;12.308;2023-11-21T04:16:27;7.10;;;2.30;;
69170;SDS011;56279;47.902;12.308;2023-11-21T04:18:28;5.55;;;1.83;;
69170;SDS011;56279;47.902;12.308;2023-11-21T04:20:29;6.83;;;2.30;;
69170;SDS011;56279;47.902;12.308;2023-11-21T04:22:32;5.72;;;1.95;;
69170;SDS011;56279;47.902;12.308;2023-11-21T04:24:33;11.45;;;2.83;;
69170;SDS011;56279;47.902;12.308;2023-11-21T04:26:35;8.63;;;2.80;;
69170;SDS011;56279;47.902;12.308;2023-11-21T04:28:36;8.43;;;1.70;;
69170;SDS011;56279;47.902;12.308;2023-11-21T04:30:37;8.43;;;1.87;;
69170;SDS011;56279;47.902;12.308;2023-11-21T04:32:40;8.18;;;1.80;;
69170;SDS011;56279;47.902;12.308;2023-11-21T04:34:42;6.10;;;1.95;;
69170;SDS011;56279;47.902;12.308;2023-11-21T04:36:43;6.22;;;1.95;;
69170;SDS011;56279;47.902;12.308;2023-11-21T04:38:45;4.85;;;1.80;;
69170;SDS011;56279;47.902;12.308;2023-11-21T04:40:46;5.93;;;1.60;;
69170;SDS011;56279;47.902;12.308;2023-11-21T04:42:48;6.00;;;1.63;;
69170;SDS011;56279;47.902;12.308;2023-11-21T04:44:49;5.10;;;2.00;;
69170;SDS011;56279;47.902;12.308;2023-11-21T04:46:50;5.07;;;1.50;;
69170;SDS011;56279;47.902;12.308;2023-11-21T04:48:52;5.40;;;2.00;;
69170;SDS011;56279;47.902;12.308;2023-11-21T04:50:53;5.17;;;1.97;;
69170;SDS011;56279;47.902;12.308;2023-11-21T04:52:54;4.03;;;1.65;;
69170;SDS011;56279;47.902;12.308;2023-11-21T04:54:56;3.95;;;1.65;;
69170;SDS011;56279;47.902;12.308;2023-11-21T04:56:59;3.63;;;1.92;;
69170;SDS011;56279;47.902;12.308;2023-11-21T04:59:01;4.28;;;1.55;;
69170;SDS011;56279;47.902;12.308;2023-11-21T05:01:03;5.10;;;1.80;;
69170;SDS011;56279;47.902;12.308;2023-11-21T05:03:04;4.82;;;1.80;;
69170;SDS011;56279;47.902;12.308;2023-11-21T05:05:07;4.38;;;1.80;;
69170;SDS011;56279;47.902;12.308;2023-11-21T05:07:11;4.38;;;1.58;;
69170;SDS011;56279;47.902;12.308;2023-11-21T05:09:12;7.28;;;2.15;;
69170;SDS011;56279;47.902;12.308;2023-11-21T05:11:22;6.30;;;1.77;;
69170;SDS011;56279;47.902;12.308;2023-11-21T05:13:27;5.70;;;1.90;;
69170;SDS011;56279;47.902;12.308;2023-11-21T05:15:28;4.25;;;1.42;;
69170;SDS011;56279;47.902;12.308;2023-11-21T05:17:29;5.68;;;1.60;;
69170;SDS011;56279;47.902;12.308;2023-11-21T05:19:31;6.35;;;1.80;;
69170;SDS011;56279;47.902;12.308;2023-11-21T05:21:34;4.57;;;1.50;;
69170;SDS011;56279;47.902;12.308;2023-11-21T05:23:36;7.78;;;1.67;;
69170;SDS011;56279;47.902;12.308;2023-11-21T05:25:38;4.47;;;1.70;;
69170;SDS011;56279;47.902;12.308;2023-11-21T05:27:39;4.55;;;1.73;;
69170;SDS011;56279;47.902;12.308;2023-11-21T05:29:41;6.65;;;2.72;;
69170;SDS011;56279;47.902;12.308;2023-11-21T05:31:42;7.43;;;1.57;;
69170;SDS011;56279;47.902;12.308;2023-11-21T05:33:43;6.20;;;1.42;;
69170;SDS011;56279;47.902;12.308;2023-11-21T05:35:44;4.30;;;1.85;;
69170;SDS011;56279;47.902;12.308;2023-11-21T05:37:46;5.85;;;2.05;;
69170;SDS011;56279;47.902;12.308;2023-11-21T05:39:48;5.88;;;2.20;;
69170;SDS011;56279;47.902;12.308;2023-11-21T05:41:50;6.17;;;1.70;;
69170;SDS011;56279;47.902;12.308;2023-11-21T05:43:51;3.90;;;1.60;;
69170;SDS011;56279;47.902;12.308;2023-11-21T05:45:56;3.45;;;1.67;;
69170;SDS011;56279;47.902;12.308;2023-11-21T05:47:58;5.60;;;2.10;;
69170;SDS011;56279;47.902;12.308;2023-11-21T05:50:00;5.90;;;2.20;;
69170;SDS011;56279;47.902;12.308;2023-11-21T05:52:02;4.00;;;1.90;;
69170;SDS011;56279;47.902;12.308;2023-11-21T05:54:04;9.57;;;2.08;;
69170;SDS011;56279;47.902;12.308;2023-11-21T05:56:05;6.30;;;1.88;;
69170;SDS011;56279;47.902;12.308;2023-11-21T05:58:06;5.95;;;1.95;;
69170;SDS011;56279;47.902;12.308;2023-11-21T06:00:10;4.93;;;1.95;;
69170;SDS011;56279;47.902;12.308;2023-11-21T06:02:16;4.67;;;1.80;;
69170;SDS011;56279;47.902;12.308;2023-11-21T06:04:17;4.10;;;1.55;;
69170;SDS011;56279;47.902;12.308;2023-11-21T06:06:19;3.50;;;1.60;;
69170;SDS011;56279;47.902;12.308;2023-11-21T06:08:20;5.97;;;1.60;;
69170;SDS011;56279;47.902;12.308;2023-11-21T06:10:22;5.85;;;1.83;;
69170;SDS011;56279;47.902;12.308;2023-11-21T06:12:25;4.87;;;1.47;;
69170;SDS011;56279;47.902;12.308;2023-11-21T06:14:27;9.30;;;1.77;;
69170;SDS011;56279;47.902;12.308;2023-11-21T06:16:28;4.13;;;1.98;;
69170;SDS011;56279;47.902;12.308;2023-11-21T06:18:30;5.50;;;1.45;;
69170;SDS011;56279;47.902;12.308;2023-11-21T06:20:31;6.40;;;1.80;;
69170;SDS011;56279;47.902;12.308;2023-11-21T06:22:33;7.90;;;1.70;;
69170;SDS011;56279;47.902;12.308;2023-11-21T06:24:34;8.93;;;2.13;;
69170;SDS011;56279;47.902;12.308;2023-11-21T06:26:35;3.90;;;1.65;;
69170;SDS011;56279;47.902;12.308;2023-11-21T06:28:36;4.65;;;1.75;;
69170;SDS011;56279;47.902;12.308;2023-11-21T06:30:42;4.57;;;1.77;;
69170;SDS011;56279;47.902;12.308;2023-11-21T06:32:45;6.40;;;2.03;;
69170;SDS011;56279;47.902;12.308;2023-11-21T06:34:48;7.10;;;2.20;;
69170;SDS011;56279;47.902;12.308;2023-11-21T06:36:50;16.45;;;4.88;;
69170;SDS011;56279;47.902;12.308;2023-11-21T06:38:52;15.40;;;4.55;;
69170;SDS011;56279;47.902;12.308;2023-11-21T06:40:54;12.10;;;3.95;;
69170;SDS011;56279;47.902;12.308;2023-11-21T06:42:55;11.63;;;3.47;;
69170;SDS011;56279;47.902;12.308;2023-11-21T06:44:59;15.70;;;4.90;;
69170;SDS011;56279;47.902;12.308;2023-11-21T06:47:06;18.23;;;5.50;;
69170;SDS011;56279;47.902;12.308;2023-11-21T06:49:08;11.45;;;3.58;;
69170;SDS011;56279;47.902;12.308;2023-11-21T06:51:09;6.63;;;2.55;;
69170;SDS011;56279;47.902;12.308;2023-11-21T06:53:11;8.37;;;1.97;;
69170;SDS011;56279;47.902;12.308;2023-11-21T06:55:12;5.78;;;1.95;;
69170;SDS011;56279;47.902;12.308;2023-11-21T06:57:14;5.93;;;2.38;;
69170;SDS011;56279;47.902;12.308;2023-11-21T06:59:15;3.88;;;1.60;;
69170;SDS011;56279;47.902;12.308;2023-11-21T07:01:18;6.28;;;1.77;;
69170;SDS011;56279;47.902;12.308;2023-11-21T07:03:19;2.93;;;1.60;;
69170;SDS011;56279;47.902;12.308;2023-11-21T07:05:20;6.65;;;1.83;;
69170;SDS011;56279;47.902;12.308;2023-11-21T07:07:22;6.68;;;2.30;;
69170;SDS011;56279;47.902;12.308;2023-11-21T07:09:24;4.03;;;1.60;;
69170;SDS011;56279;47.902;12.308;2023-11-21T07:11:27;9.23;;;2.47;;
69170;SDS011;56279;47.902;12.308;2023-11-21T07:13:28;6.83;;;3.80;;
69170;SDS011;56279;47.902;12.308;2023-11-21T07:15:30;4.38;;;1.70;;
69170;SDS011;56279;47.902;12.308;2023-11-21T07:17:31;8.77;;;2.40;;
69170;SDS011;56279;47.902;12.308;2023-11-21T07:19:32;8.20;;;2.25;;
69170;SDS011;56279;47.902;12.308;2023-11-21T07:21:34;4.85;;;1.85;;
69170;SDS011;56279;47.902;12.308;2023-11-21T07:23:36;3.17;;;1.83;;
69170;SDS011;56279;47.902;12.308;2023-11-21T07:25:37;5.13;;;1.75;;
69170;SDS011;56279;47.902;12.308;2023-11-21T07:27:39;3.55;;;2.00;;
69170;SDS011;56279;47.902;12.308;2023-11-21T07:29:40;6.28;;;1.83;;
69170;SDS011;56279;47.902;12.308;2023-11-21T07:31:41;5.88;;;2.00;;
69170;SDS011;56279;47.902;12.308;2023-11-21T07:33:43;4.77;;;1.90;;
69170;SDS011;56279;47.902;12.308;2023-11-21T07:35:44;4.75;;;2.13;;
69170;SDS011;56279;47.902;12.308;2023-11-21T07:37:45;8.70;;;2.40;;
69170;SDS011;56279;47.902;12.308;2023-11-21T07:39:48;6.72;;;2.17;;
69170;SDS011;56279;47.902;12.308;2023-11-21T07:41:49;9.10;;;2.53;;
69170;SDS011;56279;47.902;12.308;2023-11-21T07:43:50;9.37;;;2.30;;
69170;SDS011;56279;47.902;12.308;2023-11-21T07:45:52;6.55;;;2.40;;
69170;SDS011;56279;47.902;12.308;2023-11-21T07:47:55;6.60;;;2.33;;
69170;SDS011;56279;47.902;12.308;2023-11-21T07:49:56;6.57;;;2.75;;
69170;SDS011;56279;47.902;12.308;2023-11-21T07:51:57;7.40;;;2.47;;
69170;SDS011;56279;47.902;12.308;2023-11-21T07:53:59;12.07;;;2.60;;
69170;SDS011;56279;47.902;12.308;2023-11-21T07:56:03;7.10;;;2.45;;
69170;SDS011;56279;47.902;12.308;2023-11-21T07:58:06;6.82;;;2.55;;
69170;SDS011;56279;47.902;12.308;2023-11-21T08:00:07;7.53;;;2.33;;
69170;SDS011;56279;47.902;12.308;2023-11-21T08:02:13;4.60;;;2.25;;
69170;SDS011;56279;47.902;12.308;2023-11-21T08:04:15;4.60;;;1.90;;
69170;SDS011;56279;47.902;12.308;2023-11-21T08:06:18;6.60;;;1.75;;
69170;SDS011;56279;47.902;12.308;2023-11-21T08:08:19;7.18;;;2.20;;
69170;SDS011;56279;47.902;12.308;2023-11-21T08:10:20;7.20;;;2.15;;
69170;SDS011;56279;47.902;12.308;2023-11-21T08:12:22;5.47;;;2.05;;
69170;SDS011;56279;47.902;12.308;2023-11-21T08:14:23;9.37;;;2.63;;
69170;SDS011;56279;47.902;12.308;2023-11-21T08:16:28;4.03;;;1.83;;
69170;SDS011;56279;47.902;12.308;2023-11-21T08:18:29;5.10;;;2.30;;
69170;SDS011;56279;47.902;12.308;2023-11-21T08:20:30;7.32;;;2.60;;
69170;SDS011;56279;47.902;12.308;2023-11-21T08:22:32;6.13;;;2.85;;
69170;SDS011;56279;47.902;12.308;2023-11-21T08:24:35;7.87;;;2.30;;
69170;SDS011;56279;47.902;12.308;2023-11-21T08:26:36;6.60;;;2.20;;
69170;SDS011;56279;47.902;12.308;2023-11-21T08:28:38;5.05;;;2.55;;
69170;SDS011;56279;47.902;12.308;2023-11-21T08:30:40;6.40;;;2.22;;
69170;SDS011;56279;47.902;12.308;2023-11-21T08:32:42;5.32;;;2.20;;
69170;SDS011;56279;47.902;12.308;2023-11-21T08:34:44;5.00;;;2.13;;
69170;SDS011;56279;47.902;12.308;2023-11-21T08:36:46;5.85;;;1.95;;
69170;SDS011;56279;47.902;12.308;2023-11-21T08:38:47;7.00;;;2.22;;
69170;SDS011;56279;47.902;12.308;2023-11-21T08:40:49;8.57;;;2.40;;
69170;SDS011;56279;47.902;12.308;2023-11-21T08:42:51;6.15;;;2.47;;
69170;SDS011;56279;47.902;12.308;2023-11-21T08:44:53;5.27;;;2.17;;
69170;SDS011;56279;47.902;12.308;2023-11-21T08:46:54;6.60;;;2.88;;
69170;SDS011;56279;47.902;12.308;2023-11-21T08:48:55;5.43;;;2.65;;
69170;SDS011;56279;47.902;12.308;2023-11-21T08:50:57;6.68;;;2.58;;
69170;SDS011;56279;47.902;12.308;2023-11-21T08:52:58;6.20;;;2.38;;
69170;SDS011;56279;47.902;12.308;2023-11-21T08:54:59;3.53;;;1.97;;
69170;SDS011;56279;47.902;12.308;2023-11-21T08:57:04;10.05;;;2.30;;
69170;SDS011;56279;47.902;12.308;2023-11-21T08:59:06;6.72;;;2.50;;
69170;SDS011;56279;47.902;12.308;2023-11-21T09:01:08;5.13;;;2.50;;
69170;SDS011;56279;47.902;12.308;2023-11-21T09:03:10;8.05;;;2.50;;
69170;SDS011;56279;47.902;12.308;2023-11-21T09:05:11;5.33;;;2.20;;
69170;SDS011;56279;47.902;12.308;2023-11-21T09:07:14;5.35;;;2.25;;
69170;SDS011;56279;47.902;12.308;2023-11-21T09:09:16;7.82;;;2.53;;
69170;SDS011;56279;47.902;12.308;2023-11-21T09:11:17;4.97;;;2.20;;
69170;SDS011;56279;47.902;12.308;2023-11-21T09:13:18;5.22;;;2.60;;
69170;SDS011;56279;47.902;12.308;2023-11-21T09:15:20;4.43;;;2.13;;
69170;SDS011;56279;47.902;12.308;2023-11-21T09:17:21;5.07;;;2.35;;
69170;SDS011;56279;47.902;12.308;2023-11-21T09:19:22;5.63;;;2.53;;
69170;SDS011;56279;47.902;12.308;2023-11-21T09:21:23;5.60;;;2.25;;
69170;SDS011;56279;47.902;12.308;2023-11-21T09:23:26;4.63;;;2.33;;
69170;SDS011;56279;47.902;12.308;2023-11-21T09:25:27;6.83;;;2.43;;
69170;SDS011;56279;47.902;12.308;2023-11-21T09:27:29;4.43;;;1.95;;
69170;SDS011;56279;47.902;12.308;2023-11-21T09:29:31;10.23;;;2.80;;
69170;SDS011;56279;47.902;12.308;2023-11-21T09:31:32;6.03;;;2.25;;
69170;SDS011;56279;47.902;12.308;2023-11-21T09:33:34;7.13;;;2.40;;
69170;SDS011;56279;47.902;12.308;2023-11-21T09:35:38;7.63;;;1.90;;
69170;SDS011;56279;47.902;12.308;2023-11-21T09:37:40;6.07;;;2.20;;
69170;SDS011;56279;47.902;12.308;2023-11-21T09:39:41;5.43;;;2.38;;
69170;SDS011;56279;47.902;12.308;2023-11-21T09:41:44;5.13;;;1.92;;
69170;SDS011;56279;47.902;12.308;2023-11-21T09:43:50;4.03;;;1.90;;
69170;SDS011;56279;47.902;12.308;2023-11-21T09:46:02;5.20;;;2.30;;
69170;SDS011;56279;47.902;12.308;2023-11-21T09:48:11;5.45;;;2.30;;
69170;SDS011;56279;47.902;12.308;2023-11-21T09:50:14;7.93;;;2.28;;
69170;SDS011;56279;47.902;12.308;2023-11-21T09:52:28;5.47;;;2.15;;
69170;SDS011;56279;47.902;12.308;2023-11-21T09:54:30;4.68;;;2.10;;
69170;SDS011;56279;47.902;12.308;2023-11-21T09:56:32;5.13;;;2.60;;
69170;SDS011;56279;47.902;12.308;2023-11-21T09:58:33;5.10;;;2.45;;
69170;SDS011;56279;47.902;12.308;2023-11-21T10:00:35;5.63;;;2.75;;
69170;SDS011;56279;47.902;12.308;2023-11-21T10:02:37;6.28;;;2.33;;
69170;SDS011;56279;47.902;12.308;2023-11-21T10:04:41;6.22;;;2.60;;
69170;SDS011;56279;47.902;12.308;2023-11-21T10:06:42;4.80;;;2.17;;
69170;SDS011;56279;47.902;12.308;2023-11-21T10:08:46;3.90;;;2.00;;
69170;SDS011;56279;47.902;12.308;2023-11-21T10:10:49;5.18;;;2.42;;
69170;SDS011;56279;47.902;12.308;2023-11-21T10:12:56;5.35;;;2.38;;
69170;SDS011;56279;47.902;12.308;2023-11-21T10:14:57;5.65;;;2.67;;
69170;SDS011;56279;47.902;12.308;2023-11-21T10:17:01;4.83;;;2.23;;
69170;SDS011;56279;47.902;12.308;2023-11-21T10:19:03;5.18;;;1.92;;
69170;SDS011;56279;47.902;12.308;2023-11-21T10:21:07;6.70;;;2.65;;
69170;SDS011;56279;47.902;12.308;2023-11-21T10:23:10;4.95;;;2.25;;
69170;SDS011;56279;47.902;12.308;2023-11-21T10:25:12;8.32;;;2.25;;
69170;SDS011;56279;47.902;12.308;2023-11-21T10:27:17;6.33;;;2.83;;
69170;SDS011;56279;47.902;12.308;2023-11-21T10:29:19;5.75;;;2.40;;
69170;SDS011;56279;47.902;12.308;2023-11-21T10:31:22;4.80;;;2.50;;
69170;SDS011;56279;47.902;12.308;2023-11-21T10:33:28;5.60;;;2.03;;
69170;SDS011;56279;47.902;12.308;2023-11-21T10:35:42;5.80;;;2.20;;
69170;SDS011;56279;47.902;12.308;2023-11-21T10:38:01;7.20;;;1.50;;
69170;SDS011;56279;47.902;12.308;2023-11-21T10:40:02;3.22;;;1.58;;
69170;SDS011;56279;47.902;12.308;2023-11-21T10:42:08;3.20;;;1.50;;
69170;SDS011;56279;47.902;12.308;2023-11-21T10:44:11;3.65;;;1.63;;
69170;SDS011;56279;47.902;12.308;2023-11-21T10:46:15;2.92;;;1.45;;
69170;SDS011;56279;47.902;12.308;2023-11-21T10:48:16;3.67;;;1.70;;
69170;SDS011;56279;47.902;12.308;2023-11-21T10:50:18;2.67;;;1.30;;
69170;SDS011;56279;47.902;12.308;2023-11-21T10:52:19;2.15;;;1.33;;
69170;SDS011;56279;47.902;12.308;2023-11-21T10:54:22;2.72;;;1.60;;
69170;SDS011;56279;47.902;12.308;2023-11-21T10:56:24;4.13;;;1.50;;
69170;SDS011;56279;47.902;12.308;2023-11-21T10:58:28;3.90;;;1.20;;
69170;SDS011;56279;47.902;12.308;2023-11-21T11:00:30;3.00;;;1.40;;
69170;SDS011;56279;47.902;12.308;2023-11-21T11:02:32;3.90;;;1.63;;
69170;SDS011;56279;47.902;12.308;2023-11-21T11:04:35;3.83;;;1.70;;
69170;SDS011;56279;47.902;12.308;2023-11-21T11:06:38;2.67;;;1.80;;
69170;SDS011;56279;47.902;12.308;2023-11-21T11:08:40;4.43;;;1.37;;
69170;SDS011;56279;47.902;12.308;2023-11-21T11:10:42;4.28;;;1.73;;
69170;SDS011;56279;47.902;12.308;2023-11-21T11:12:43;3.15;;;1.60;;
69170;SDS011;56279;47.902;12.308;2023-11-21T11:14:48;3.72;;;1.50;;
69170;SDS011;56279;47.902;12.308;2023-11-21T11:16:53;3.40;;;1.45;;
69170;SDS011;56279;47.902;12.308;2023-11-21T11:18:57;3.63;;;1.60;;
69170;SDS011;56279;47.902;12.308;2023-11-21T11:21:20;3.20;;;1.35;;
69170;SDS011;56279;47.902;12.308;2023-11-21T11:26:12;3.78;;;1.20;;
69170;SDS011;56279;47.902;12.308;2023-11-21T11:35:33;3.75;;;1.60;;
69170;SDS011;56279;47.902;12.308;2023-11-21T11:37:39;2.88;;;1.58;;
69170;SDS011;56279;47.902;12.308;2023-11-21T11:39:41;6.10;;;1.40;;
69170;SDS011;56279;47.902;12.308;2023-11-21T11:41:44;2.57;;;1.43;;
69170;SDS011;56279;47.902;12.308;2023-11-21T11:43:45;4.22;;;1.55;;
69170;SDS011;56279;47.902;12.308;2023-11-21T11:45:46;2.78;;;1.50;;
69170;SDS011;56279;47.902;12.308;2023-11-21T11:47:56;3.42;;;1.38;;
69170;SDS011;56279;47.902;12.308;2023-11-21T11:54:39;2.78;;;1.23;;
69170;SDS011;56279;47.902;12.308;2023-11-21T11:56:40;2.95;;;1.50;;
69170;SDS011;56279;47.902;12.308;2023-11-21T11:58:42;3.17;;;1.40;;
69170;SDS011;56279;47.902;12.308;2023-11-21T12:00:45;4.90;;;1.45;;
69170;SDS011;56279;47.902;12.308;2023-11-21T12:02:50;2.63;;;1.53;;
69170;SDS011;56279;47.902;12.308;2023-11-21T12:04:55;3.70;;;1.75;;
69170;SDS011;56279;47.902;12.308;2023-11-21T12:06:59;2.70;;;1.60;;
69170;SDS011;56279;47.902;12.308;2023-11-21T12:09:03;3.42;;;1.40;;
69170;SDS011;56279;47.902;12.308;2023-11-21T12:11:07;2.05;;;1.52;;
69170;SDS011;56279;47.902;12.308;2023-11-21T12:13:09;1.80;;;1.10;;
69170;SDS011;56279;47.902;12.308;2023-11-21T12:15:13;2.28;;;1.27;;
69170;SDS011;56279;47.902;12.308;2023-11-21T12:17:14;2.58;;;1.40;;
69170;SDS011;56279;47.902;12.308;2023-11-21T12:19:16;4.28;;;1.58;;